Hlavní strana
METAR-TAF:

METAR-TAF

Letiště :

Pryor Field Regional Airport

Decatur, Alabama, Spojené státy americké

zeměpisná šířka: 34-39-29N, zeměpisná délka: 086-56-36W, výška: 180 m

Aktuální stav počasí

Zpráva byla vytvořena před 33 minutami, v 16:53 UTC
Severní vítr 10 kt
Teplota 9°C
Vlhkost vzduchu 46%
Tlak 1025 hPa
Viditelnost: 16.1 km
Skoro jasno ve výšce 12000 ft

METAR: KDCU 151653Z AUTO 36010KT 10SM FEW120 09/M02 A3028 RMK AO2 SLP254 T00891017

Čas: 11:26 (17:26 UTC)


TAF: chybějící

Stav a předpovědi počasí z více než 4 000 letišť (zprávy METAR a TAF).

Červené a žluté tečky na mapě představují dostupné meteorologické stanice.

Když kurzor umístíte na tečku, zobrazí se název stanice.

Pak kliknutím zobrazíte stav a předpověď počasí.

Chcete-li změnit mapu, kliknutím na zelené tlačítko se znaménkem +mapu přiblížíte, kliknutím na zelené tlačítko se znaménkem – mapu oddálíte a kliknutím na zelené šipky přejdete na sousední mapy.


METAR-TAF: